Time;durP1;ratioP1;P1;durP2;ratioP2;P2;SDS_P1;SDS_P2;PMS_P1;PMS_P2;Temp;Humidity;BMP_temperature;BMP_pressure;BME280_temperature;BME280_humidity;BME280_pressure;Samples;Min_cycle;Max_cycle;Signal;HPM_P1;HPM_P2
2022/01/24 00:01:33;;;;;;;2.43;2.33;;;16.10;66.10;;;;;;5069542;28;43910;-69
2022/01/24 00:04:02;;;;;;;2.20;2.20;;;16.30;65.80;;;;;;5086620;28;43904;-69
2022/01/24 00:06:32;;;;;;;2.40;2.40;;;16.40;65.30;;;;;;5070421;28;44152;-69
2022/01/24 00:09:00;;;;;;;2.27;2.27;;;16.60;64.80;;;;;;5070046;28;44225;-69
2022/01/24 00:11:41;;;;;;;2.10;2.10;;;16.70;64.30;;;;;;5069901;28;44014;-70
2022/01/24 00:14:49;;;;;;;2.20;2.20;;;16.70;64.00;;;;;;5085818;27;43943;-69
2022/01/24 00:17:30;;;;;;;2.00;2.00;;;16.60;64.10;;;;;;5075321;28;44161;-69
2022/01/24 00:28:20;;;;;;;1.90;1.90;;;16.30;65.20;;;;;;5041055;28;43431;-70
2022/01/24 00:30:50;;;;;;;1.87;1.77;;;16.30;65.40;;;;;;5068369;28;46010;-69
2022/01/24 00:33:19;;;;;;;1.80;1.80;;;16.20;65.40;;;;;;5053066;28;44160;-69
2022/01/24 00:35:50;;;;;;;1.87;1.87;;;16.20;65.60;;;;;;5085823;28;44504;-69
2022/01/24 00:38:18;;;;;;;1.93;1.90;;;16.10;65.60;;;;;;5086375;28;43935;-70
2022/01/24 00:40:48;;;;;;;2.10;2.10;;;16.10;65.80;;;;;;5052013;28;46558;-69
2022/01/24 00:43:26;;;;;;;2.20;2.20;;;16.20;65.80;;;;;;5052778;28;43855;-69
2022/01/24 00:46:01;;;;;;;1.87;1.87;;;16.30;65.30;;;;;;5053802;28;43829;-70
2022/01/24 00:54:42;;;;;;;1.80;1.80;;;16.30;64.90;;;;;;5086230;28;45476;-69
2022/01/24 00:56:51;;;;;;;1.80;1.80;;;16.30;65.20;;;;;;5072166;28;43875;-69
2022/01/24 00:59:20;;;;;;;1.93;1.93;;;16.20;65.30;;;;;;5069799;28;44160;-70
2022/01/24 01:01:52;;;;;;;1.80;1.80;;;16.20;65.50;;;;;;5068957;28;44113;-69
2022/01/24 01:04:23;;;;;;;1.90;1.90;;;16.20;65.60;;;;;;5069022;28;43957;-69
2022/01/24 01:06:53;;;;;;;2.00;2.00;;;16.10;65.70;;;;;;5069378;28;43941;-70
2022/01/24 01:20:34;;;;;;;1.83;1.83;;;16.10;66.10;;;;;;5068170;28;44064;-70
2022/01/24 01:23:02;;;;;;;1.93;1.93;;;16.10;66.10;;;;;;5069602;28;43845;-69
2022/01/24 01:25:33;;;;;;;1.70;1.70;;;16.30;65.80;;;;;;5067573;28;44523;-69
2022/01/24 01:28:01;;;;;;;1.80;1.80;;;16.50;65.20;;;;;;5067536;28;44039;-69
2022/01/24 01:30:37;;;;;;;1.70;1.70;;;16.60;64.50;;;;;;5051538;28;44191;-70
2022/01/24 01:33:14;;;;;;;1.63;1.63;;;16.80;64.10;;;;;;5063147;28;44094;-70
2022/01/24 01:35:56;;;;;;;1.83;1.83;;;16.80;63.90;;;;;;5068326;27;43863;-70
2022/01/24 01:38:49;;;;;;;1.77;1.77;;;16.70;63.90;;;;;;5070055;28;44101;-69
2022/01/24 01:52:50;;;;;;;1.70;1.70;;;16.20;65.30;;;;;;5070636;28;44258;-69
2022/01/24 01:55:37;;;;;;;1.60;1.60;;;16.20;65.50;;;;;;5069754;28;46636;-70
2022/01/24 01:58:08;;;;;;;1.70;1.70;;;16.20;65.60;;;;;;5070652;28;44711;-69
2022/01/24 02:00:38;;;;;;;1.73;1.73;;;16.10;65.70;;;;;;5064826;27;43454;-69
2022/01/24 02:03:08;;;;;;;1.70;1.70;;;16.20;65.80;;;;;;5081982;27;43984;-69
2022/01/24 02:05:38;;;;;;;1.63;1.63;;;16.30;65.40;;;;;;5077644;28;45240;-69
2022/01/24 02:08:07;;;;;;;1.60;1.60;;;16.40;65.00;;;;;;5078601;28;43935;-70
2022/01/24 02:10:38;;;;;;;1.80;1.80;;;16.40;64.80;;;;;;5067883;28;43997;-70
2022/01/24 02:13:06;;;;;;;1.70;1.70;;;16.40;64.90;;;;;;5068678;28;43614;-69
2022/01/24 02:15:44;;;;;;;1.80;1.80;;;16.30;65.00;;;;;;5083997;28;44626;-69
2022/01/24 02:18:23;;;;;;;1.70;1.70;;;16.30;65.20;;;;;;5069064;28;44027;-70
2022/01/24 02:21:10;;;;;;;1.50;1.50;;;16.20;65.30;;;;;;5052971;28;43896;-68
2022/01/24 02:23:45;;;;;;;1.50;1.50;;;16.20;65.50;;;;;;5078064;28;43956;-69
2022/01/24 02:26:19;;;;;;;1.67;1.67;;;16.10;65.50;;;;;;5084308;28;43827;-69
2022/01/24 02:28:56;;;;;;;1.60;1.60;;;16.10;65.60;;;;;;5068069;28;43892;-69
2022/01/24 02:31:47;;;;;;;1.60;1.60;;;16.10;65.70;;;;;;5084128;28;43997;-69
2022/01/24 02:34:27;;;;;;;1.50;1.50;;;16.10;65.80;;;;;;5054029;28;44280;-69
2022/01/24 02:36:56;;;;;;;1.53;1.53;;;16.10;65.80;;;;;;5068590;28;43989;-69
2022/01/24 02:39:44;;;;;;;1.60;1.60;;;16.10;65.90;;;;;;5071266;28;43406;-70
2022/01/24 02:50:50;;;;;;;1.50;1.50;;;16.50;64.70;;;;;;5073362;28;43554;-70
2022/01/24 02:53:19;;;;;;;1.60;1.60;;;16.70;64.30;;;;;;5073514;28;44032;-69
2022/01/24 02:55:48;;;;;;;1.63;1.63;;;16.70;63.90;;;;;;5071069;28;43997;-69
2022/01/24 02:58:17;;;;;;;1.50;1.50;;;16.60;63.90;;;;;;5070679;28;44047;-69
2022/01/24 03:00:45;;;;;;;1.60;1.60;;;16.60;64.30;;;;;;5070489;28;44446;-69
2022/01/24 03:03:16;;;;;;;1.80;1.80;;;16.50;64.50;;;;;;5054797;28;43412;-69
2022/01/24 03:05:45;;;;;;;1.40;1.40;;;16.40;64.70;;;;;;5087953;27;43620;-69
2022/01/24 03:08:15;;;;;;;1.70;1.70;;;16.30;64.90;;;;;;5088696;28;44057;-70
2022/01/24 03:10:46;;;;;;;1.40;1.40;;;16.20;65.00;;;;;;5070413;28;44107;-69
2022/01/24 03:13:29;;;;;;;1.50;1.50;;;16.20;65.20;;;;;;5087167;28;43420;-70
2022/01/24 03:15:59;;;;;;;1.30;1.30;;;16.20;65.40;;;;;;5088006;28;44037;-69
2022/01/24 03:18:27;;;;;;;1.50;1.50;;;16.10;66.10;;;;;;5087165;28;45398;-69
2022/01/24 03:20:55;;;;;;;1.70;1.70;;;16.10;65.50;;;;;;5087279;28;44159;-69
2022/01/24 03:23:24;;;;;;;1.40;1.40;;;16.10;65.80;;;;;;5070368;28;43972;-70
2022/01/24 03:25:53;;;;;;;1.40;1.40;;;16.30;65.60;;;;;;5071219;28;43836;-69
2022/01/24 03:28:27;;;;;;;1.50;1.50;;;16.30;65.00;;;;;;5070612;28;46366;-71
2022/01/24 03:30:56;;;;;;;1.50;1.50;;;16.40;64.80;;;;;;5053124;28;43958;-69
2022/01/24 03:33:24;;;;;;;1.50;1.50;;;16.40;64.80;;;;;;5069839;28;43878;-69
2022/01/24 03:35:52;;;;;;;1.50;1.50;;;16.30;64.90;;;;;;5087526;28;43458;-69
2022/01/24 03:38:23;;;;;;;1.37;1.37;;;16.30;65.10;;;;;;5070863;28;43887;-69
2022/01/24 03:40:51;;;;;;;1.43;1.43;;;16.20;65.20;;;;;;5086909;28;43371;-69
2022/01/24 03:43:20;;;;;;;1.30;1.30;;;16.20;65.30;;;;;;5070233;28;43979;-70
2022/01/24 03:46:10;;;;;;;1.43;1.43;;;16.10;65.40;;;;;;5087193;28;43467;-69
2022/01/24 03:48:41;;;;;;;1.43;1.43;;;16.10;65.50;;;;;;5072110;28;44080;-70
2022/01/24 03:51:09;;;;;;;1.30;1.30;;;16.10;65.60;;;;;;5070820;28;44012;-70
2022/01/24 03:53:40;;;;;;;1.47;1.47;;;16.10;65.70;;;;;;5070066;28;44061;-69
2022/01/24 03:56:09;;;;;;;1.33;1.33;;;16.10;65.70;;;;;;5070711;28;44081;-70
2022/01/24 03:58:37;;;;;;;1.20;1.20;;;16.00;65.70;;;;;;5069925;28;44047;-69
2022/01/24 04:01:07;;;;;;;1.40;1.40;;;16.00;65.80;;;;;;5070071;28;43648;-71
2022/01/24 04:03:36;;;;;;;1.40;1.40;;;16.10;66.00;;;;;;5069726;28;43450;-69
2022/01/24 04:06:05;;;;;;;1.30;1.30;;;16.20;65.70;;;;;;5086941;28;43991;-70
2022/01/24 04:08:33;;;;;;;1.60;1.50;;;16.40;65.30;;;;;;5069078;28;46246;-69
2022/01/24 04:11:09;;;;;;;1.40;1.40;;;16.50;64.70;;;;;;5087103;28;44030;-70
2022/01/24 04:13:40;;;;;;;1.40;1.40;;;16.70;64.20;;;;;;5053880;28;44007;-69
2022/01/24 04:16:27;;;;;;;1.33;1.33;;;16.70;63.80;;;;;;5070656;28;43791;-70
2022/01/24 04:19:07;;;;;;;1.40;1.40;;;16.70;63.80;;;;;;5071837;28;45629;-70
2022/01/24 04:21:37;;;;;;;1.20;1.20;;;16.50;64.00;;;;;;5086172;28;43947;-70
2022/01/24 04:24:09;;;;;;;1.40;1.40;;;16.40;64.30;;;;;;5086427;28;43956;-70
2022/01/24 04:26:38;;;;;;;1.20;1.20;;;16.40;64.60;;;;;;5087220;28;43993;-69
2022/01/24 04:29:07;;;;;;;1.47;1.47;;;16.30;64.80;;;;;;5086471;28;43964;-69
2022/01/24 04:31:37;;;;;;;1.40;1.40;;;16.20;65.00;;;;;;5068640;28;44000;-69
2022/01/24 04:34:05;;;;;;;1.30;1.30;;;16.20;65.10;;;;;;5069300;28;44292;-69
2022/01/24 04:36:33;;;;;;;1.30;1.30;;;16.20;65.30;;;;;;5052508;28;44022;-69
2022/01/24 04:39:03;;;;;;;1.20;1.20;;;16.10;65.30;;;;;;5069546;28;43945;-69
2022/01/24 04:41:35;;;;;;;1.40;1.40;;;16.10;65.40;;;;;;5052824;28;43414;-69
2022/01/24 04:44:11;;;;;;;1.23;1.23;;;16.10;65.80;;;;;;5086172;28;43947;-69
2022/01/24 04:46:57;;;;;;;1.40;1.40;;;16.20;65.60;;;;;;5069663;28;43830;-70
2022/01/24 04:52:27;;;;;;;1.30;1.30;;;16.40;64.60;;;;;;5086024;28;43893;-69
2022/01/24 04:54:55;;;;;;;1.20;1.20;;;16.40;64.60;;;;;;5070538;28;43822;-69
2022/01/24 04:57:25;;;;;;;1.47;1.47;;;16.30;64.80;;;;;;5086027;28;44144;-69
2022/01/24 04:59:55;;;;;;;1.20;1.20;;;16.20;65.00;;;;;;5084713;28;43697;-69
2022/01/24 05:02:25;;;;;;;1.10;1.10;;;16.20;65.20;;;;;;5068895;28;44057;-69
2022/01/24 05:04:54;;;;;;;1.87;1.50;;;16.10;65.20;;;;;;5085363;27;43421;-68
2022/01/24 05:07:25;;;;;;;1.27;1.27;;;16.10;65.40;;;;;;5069358;28;43902;-70
2022/01/24 05:09:59;;;;;;;1.33;1.33;;;16.10;65.50;;;;;;5068681;28;44228;-69
2022/01/24 05:21:09;;;;;;;1.30;1.30;;;16.10;65.60;;;;;;5069629;28;46117;-69
2022/01/24 05:23:38;;;;;;;1.20;1.20;;;16.00;65.80;;;;;;5085217;28;43984;-69
2022/01/24 05:26:07;;;;;;;1.23;1.23;;;16.10;65.90;;;;;;5045506;28;44004;-70
2022/01/24 05:28:36;;;;;;;1.40;1.40;;;16.20;65.60;;;;;;5062464;28;44308;-70
2022/01/24 05:31:04;;;;;;;1.20;1.20;;;16.40;65.10;;;;;;5048172;28;44192;-69
2022/01/24 05:33:34;;;;;;;1.27;1.27;;;16.50;64.50;;;;;;5068032;28;44536;-69
2022/01/24 05:36:02;;;;;;;1.20;1.20;;;16.70;64.10;;;;;;5068846;28;43914;-69
2022/01/24 05:38:31;;;;;;;1.43;1.43;;;16.60;63.80;;;;;;5051639;28;43867;-69
2022/01/24 05:41:02;;;;;;;1.20;1.20;;;16.60;63.90;;;;;;5085032;28;43833;-70
2022/01/24 05:43:30;;;;;;;1.30;1.30;;;16.50;64.10;;;;;;5068103;28;44049;-70
2022/01/24 05:45:59;;;;;;;1.20;1.20;;;16.40;64.40;;;;;;5068725;28;44123;-69
2022/01/24 05:48:27;;;;;;;1.20;1.20;;;16.30;64.50;;;;;;5068422;28;43533;-69
2022/01/24 05:50:57;;;;;;;1.20;1.20;;;16.30;64.80;;;;;;5068245;28;45952;-69
2022/01/24 05:53:25;;;;;;;1.20;1.20;;;16.20;64.90;;;;;;5067671;28;43825;-70
2022/01/24 05:55:54;;;;;;;1.30;1.30;;;16.20;65.00;;;;;;5067706;28;43346;-69
2022/01/24 05:58:23;;;;;;;1.20;1.20;;;16.10;65.00;;;;;;5052025;28;44035;-69
2022/01/24 06:00:51;;;;;;;1.10;1.10;;;16.10;65.20;;;;;;5084970;28;43962;-70
2022/01/24 06:03:20;;;;;;;1.30;1.30;;;16.10;65.30;;;;;;5068367;28;44088;-69
2022/01/24 06:05:48;;;;;;;1.40;1.40;;;16.10;65.60;;;;;;5068041;28;44077;-70
2022/01/24 06:08:18;;;;;;;1.30;1.30;;;16.20;65.40;;;;;;5068201;28;43580;-69
2022/01/24 06:10:48;;;;;;;1.20;1.20;;;16.30;64.90;;;;;;5067914;28;44326;-70
2022/01/24 06:13:17;;;;;;;1.10;1.10;;;16.30;64.50;;;;;;5068219;28;44028;-69
2022/01/24 06:15:45;;;;;;;1.20;1.20;;;16.30;64.50;;;;;;5050963;28;43429;-70
2022/01/24 06:18:14;;;;;;;1.40;1.40;;;16.30;64.80;;;;;;5085302;28;43957;-69
2022/01/24 06:20:43;;;;;;;1.33;1.33;;;16.30;64.90;;;;;;5051548;28;43928;-69
2022/01/24 06:23:13;;;;;;;1.13;1.13;;;16.20;65.00;;;;;;5067696;28;43901;-70
2022/01/24 06:25:43;;;;;;;1.20;1.20;;;16.20;65.20;;;;;;5084782;28;43508;-69
2022/01/24 06:28:12;;;;;;;1.20;1.20;;;16.10;65.20;;;;;;5084830;28;43823;-69
2022/01/24 06:30:40;;;;;;;1.20;1.20;;;16.10;65.40;;;;;;5083649;28;44714;-69
2022/01/24 06:33:09;;;;;;;1.20;1.20;;;16.10;65.40;;;;;;5050744;28;43353;-70
2022/01/24 06:35:38;;;;;;;1.33;1.33;;;16.10;65.50;;;;;;5084129;28;43954;-69
2022/01/24 06:38:06;;;;;;;1.47;1.40;;;16.00;65.40;;;;;;5084786;27;44178;-70
2022/01/24 06:40:35;;;;;;;1.20;1.20;;;16.10;66.40;;;;;;5067111;28;44243;-70
2022/01/24 06:43:04;;;;;;;1.20;1.20;;;16.00;65.60;;;;;;5084035;28;43992;-70
2022/01/24 06:45:33;;;;;;;1.30;1.30;;;16.00;65.80;;;;;;5050509;28;44014;-69
2022/01/24 06:48:01;;;;;;;1.50;1.40;;;16.10;65.70;;;;;;5068590;28;43849;-69
2022/01/24 06:50:31;;;;;;;1.20;1.20;;;16.30;65.30;;;;;;5084017;28;46286;-69
2022/01/24 06:52:59;;;;;;;1.27;1.10;;;16.40;64.70;;;;;;5084046;28;43948;-69
2022/01/24 06:55:28;;;;;;;1.33;1.33;;;16.60;64.40;;;;;;5083964;27;43913;-69
2022/01/24 06:57:56;;;;;;;1.30;1.30;;;16.60;63.80;;;;;;5051143;28;44105;-70
2022/01/24 07:00:26;;;;;;;1.30;1.30;;;16.60;63.70;;;;;;5067304;28;44080;-69
2022/01/24 07:02:55;;;;;;;1.40;1.40;;;16.50;63.70;;;;;;5067323;28;44086;-70
2022/01/24 07:05:23;;;;;;;1.30;1.30;;;16.50;64.10;;;;;;5066213;28;44030;-70
2022/01/24 07:07:51;;;;;;;1.30;1.30;;;16.40;64.30;;;;;;5084838;28;44168;-69
2022/01/24 07:10:20;;;;;;;1.40;1.40;;;16.30;64.50;;;;;;5067735;28;43825;-69
2022/01/24 07:12:58;;;;;;;1.20;1.20;;;16.20;64.70;;;;;;5069324;28;44130;-69
2022/01/24 07:15:34;;;;;;;1.37;1.37;;;16.20;64.90;;;;;;5044973;28;43997;-70
2022/01/24 07:18:14;;;;;;;1.30;1.30;;;16.20;65.10;;;;;;5068969;28;43950;-70
2022/01/24 07:20:42;;;;;;;1.40;1.40;;;16.10;65.10;;;;;;5084510;28;44131;-69
2022/01/24 07:23:10;;;;;;;1.30;1.30;;;16.10;65.20;;;;;;5085065;27;44025;-69
2022/01/24 07:25:44;;;;;;;1.30;1.30;;;16.10;65.30;;;;;;5071705;28;43948;-69
2022/01/24 07:28:12;;;;;;;1.20;1.20;;;16.10;65.40;;;;;;5054951;28;44035;-70
2022/01/24 07:30:42;;;;;;;1.53;1.53;;;16.30;65.10;;;;;;5070431;28;43991;-69
2022/01/24 07:33:10;;;;;;;1.50;1.40;;;16.30;64.50;;;;;;5070889;28;43898;-69
2022/01/24 07:35:40;;;;;;;1.50;1.50;;;16.30;64.50;;;;;;5071354;28;43988;-69
2022/01/24 07:38:08;;;;;;;1.50;1.50;;;16.30;64.60;;;;;;5071314;28;43983;-69
2022/01/24 07:40:39;;;;;;;1.50;1.50;;;16.30;64.60;;;;;;5087835;28;44050;-70
2022/01/24 07:43:12;;;;;;;1.40;1.40;;;16.20;64.70;;;;;;5071377;28;44078;-69
2022/01/24 07:45:43;;;;;;;2.00;1.40;;;16.20;64.90;;;;;;5071679;28;44081;-69
2022/01/24 07:48:12;;;;;;;1.50;1.50;;;16.10;64.90;;;;;;5087729;28;43971;-69
2022/01/24 07:50:42;;;;;;;1.60;1.60;;;16.10;65.00;;;;;;5087387;28;45136;-69
2022/01/24 07:53:12;;;;;;;1.53;1.53;;;16.10;65.10;;;;;;5070901;28;44932;-69
2022/01/24 07:55:57;;;;;;;1.60;1.60;;;16.10;65.10;;;;;;5069449;28;43877;-69
2022/01/24 07:58:25;;;;;;;1.57;1.50;;;16.10;65.30;;;;;;5087476;28;44118;-69
2022/01/24 08:00:55;;;;;;;1.50;1.50;;;16.00;65.20;;;;;;5087218;28;43963;-70
2022/01/24 08:03:23;;;;;;;3.43;1.77;;;16.00;65.30;;;;;;5070524;28;44078;-69
2022/01/24 08:05:52;;;;;;;1.43;1.43;;;16.00;65.30;;;;;;5070403;28;43440;-69
2022/01/24 08:08:21;;;;;;;1.87;1.77;;;16.00;65.60;;;;;;5071261;28;44206;-69
2022/01/24 08:10:49;;;;;;;1.53;1.50;;;16.10;65.40;;;;;;5070630;28;43942;-70
2022/01/24 08:13:18;;;;;;;1.57;1.50;;;16.30;64.90;;;;;;5087228;28;44508;-69
2022/01/24 08:15:46;;;;;;;1.60;1.50;;;16.50;64.50;;;;;;5053398;28;44321;-69
2022/01/24 08:18:16;;;;;;;1.37;1.37;;;16.60;63.80;;;;;;5070456;28;44013;-68
2022/01/24 08:20:44;;;;;;;3.17;1.80;;;16.70;63.50;;;;;;5070206;28;44015;-70
2022/01/24 08:23:13;;;;;;;2.73;1.80;;;16.70;63.20;;;;;;5086677;28;43948;-69
2022/01/24 08:25:42;;;;;;;1.63;1.60;;;16.60;63.50;;;;;;5070360;28;44064;-69
2022/01/24 08:28:10;;;;;;;1.70;1.60;;;16.50;63.90;;;;;;5070371;28;43969;-69
2022/01/24 08:30:39;;;;;;;1.90;1.90;;;16.40;64.10;;;;;;5068881;28;43984;-70
2022/01/24 08:33:07;;;;;;;1.53;1.43;;;16.30;64.40;;;;;;5086647;27;44414;-69
2022/01/24 08:35:44;;;;;;;1.50;1.50;;;16.30;64.50;;;;;;5069604;28;43974;-69
2022/01/24 08:38:12;;;;;;;1.60;1.50;;;16.20;64.70;;;;;;5070182;28;43985;-69
2022/01/24 08:40:41;;;;;;;1.80;1.70;;;16.20;64.90;;;;;;5069562;28;44156;-69
2022/01/24 08:43:10;;;;;;;1.40;1.40;;;16.10;64.90;;;;;;5069727;28;44020;-70
2022/01/24 08:45:45;;;;;;;1.40;1.40;;;16.10;65.00;;;;;;5070209;28;43949;-69
2022/01/24 08:48:13;;;;;;;1.60;1.60;;;16.10;65.20;;;;;;5087542;28;43850;-69
2022/01/24 08:50:43;;;;;;;1.83;1.73;;;16.20;65.30;;;;;;5069698;28;45862;-69
2022/01/24 08:53:12;;;;;;;1.67;1.47;;;16.30;64.80;;;;;;5087477;27;43930;-68
2022/01/24 08:55:40;;;;;;;1.67;1.67;;;16.50;64.40;;;;;;5096623;27;43386;-69
2022/01/24 08:58:11;;;;;;;1.60;1.60;;;16.60;63.90;;;;;;5063369;28;43939;-70
2022/01/24 09:00:39;;;;;;;1.90;1.60;;;16.80;63.50;;;;;;5063537;28;45980;-69
2022/01/24 09:03:07;;;;;;;1.43;1.43;;;16.70;63.20;;;;;;5069745;28;43410;-70
2022/01/24 09:05:36;;;;;;;1.50;1.50;;;16.70;63.40;;;;;;5069521;28;44037;-70
2022/01/24 09:08:07;;;;;;;1.50;1.50;;;16.60;63.70;;;;;;5087079;28;44414;-70
2022/01/24 09:10:37;;;;;;;1.70;1.70;;;16.50;64.00;;;;;;5086022;27;44896;-69
2022/01/24 09:13:07;;;;;;;1.63;1.53;;;16.40;64.10;;;;;;5069623;28;43439;-69
2022/01/24 09:15:35;;;;;;;2.40;1.67;;;16.30;64.40;;;;;;5069219;28;43867;-69
2022/01/24 09:18:03;;;;;;;1.60;1.60;;;16.30;64.50;;;;;;5086276;28;43725;-69
2022/01/24 09:20:34;;;;;;;2.17;1.77;;;16.20;64.50;;;;;;5070267;28;44074;-69
2022/01/24 09:23:02;;;;;;;3.13;1.47;;;16.20;64.60;;;;;;5086516;27;44034;-69
2022/01/24 09:25:32;;;;;;;12.30;2.77;;;16.20;64.80;;;;;;5069059;28;43890;-70
2022/01/24 09:28:01;;;;;;;4.37;2.17;;;16.20;65.00;;;;;;5069837;28;44058;-70
2022/01/24 09:30:30;;;;;;;6.17;2.20;;;16.20;65.00;;;;;;5069372;28;44029;-70
2022/01/24 09:32:58;;;;;;;6.03;2.10;;;16.30;64.60;;;;;;5052744;28;44022;-69
2022/01/24 09:35:27;;;;;;;7.63;1.90;;;16.40;64.10;;;;;;5069289;28;43432;-69
2022/01/24 09:37:56;;;;;;;2.00;1.90;;;16.50;64.00;;;;;;5052780;28;43846;-70
2022/01/24 09:40:25;;;;;;;2.33;2.10;;;16.40;64.80;;;;;;5068450;28;43974;-69
2022/01/24 09:42:54;;;;;;;5.40;2.43;;;16.40;64.40;;;;;;5069085;28;44419;-69
2022/01/24 09:45:23;;;;;;;2.17;1.80;;;16.30;64.50;;;;;;5069328;27;43906;-69
2022/01/24 09:47:52;;;;;;;2.70;1.90;;;16.30;64.70;;;;;;5086068;27;43946;-70
2022/01/24 09:50:21;;;;;;;2.70;1.87;;;16.20;64.80;;;;;;5068731;28;43993;-70
2022/01/24 09:52:49;;;;;;;2.20;2.00;;;16.20;65.00;;;;;;5085216;28;43868;-70
2022/01/24 09:55:20;;;;;;;1.87;1.77;;;16.20;65.10;;;;;;5068927;28;43930;-70
2022/01/24 09:57:52;;;;;;;1.97;1.87;;;16.10;65.10;;;;;;5086055;28;43537;-69
2022/01/24 10:00:23;;;;;;;2.00;1.80;;;16.10;65.10;;;;;;5086797;28;44879;-70
2022/01/24 10:02:53;;;;;;;1.90;1.90;;;16.10;65.10;;;;;;5085345;28;44346;-70
2022/01/24 10:05:42;;;;;;;3.10;2.30;;;16.10;65.30;;;;;;5072455;28;44032;-69
2022/01/24 10:08:30;;;;;;;2.20;2.10;;;16.10;65.30;;;;;;5071343;28;43578;-69
2022/01/24 10:11:01;;;;;;;2.43;2.23;;;16.20;65.40;;;;;;5085220;28;45287;-69
2022/01/24 10:16:28;;;;;;;2.00;1.90;;;16.50;64.60;;;;;;5085173;28;43990;-70
2022/01/24 10:19:06;;;;;;;1.80;1.70;;;16.70;64.00;;;;;;5053632;28;43963;-70
2022/01/24 10:21:55;;;;;;;1.90;1.80;;;16.80;63.50;;;;;;5085562;28;45104;-70
2022/01/24 10:24:32;;;;;;;1.90;1.80;;;16.80;63.00;;;;;;5068077;28;43919;-69
2022/01/24 10:27:08;;;;;;;1.63;1.53;;;16.80;63.20;;;;;;5085252;28;43979;-69
2022/01/24 10:29:42;;;;;;;1.53;1.53;;;16.70;63.50;;;;;;5068447;28;43972;-70
2022/01/24 10:32:46;;;;;;;1.60;1.60;;;16.60;63.90;;;;;;5051537;28;43950;-70
2022/01/24 10:35:30;;;;;;;2.40;2.20;;;16.50;64.10;;;;;;5026518;28;43964;-70
2022/01/24 10:38:20;;;;;;;2.20;2.00;;;16.40;64.50;;;;;;5048125;28;43460;-70
2022/01/24 10:40:52;;;;;;;2.13;1.93;;;16.30;64.60;;;;;;5069164;28;43567;-69
2022/01/24 10:43:22;;;;;;;2.70;2.50;;;16.30;64.80;;;;;;5068765;28;44065;-70
2022/01/24 10:45:52;;;;;;;4.13;2.50;;;16.30;64.90;;;;;;5079689;27;44760;-69
2022/01/24 10:48:23;;;;;;;2.27;2.17;;;16.30;65.10;;;;;;5068517;28;43992;-70
2022/01/24 10:51:03;;;;;;;2.50;2.20;;;16.40;65.10;;;;;;5085028;28;44003;-69
2022/01/24 10:53:36;;;;;;;2.50;2.40;;;16.50;65.30;;;;;;5067998;28;44210;-70
2022/01/24 10:56:20;;;;;;;3.43;2.40;;;16.60;64.30;;;;;;5051302;28;44781;-70
2022/01/24 10:58:48;;;;;;;1.80;1.70;;;16.60;64.40;;;;;;5088078;27;43919;-69
2022/01/24 11:01:17;;;;;;;3.47;2.37;;;16.50;64.50;;;;;;5055112;28;44299;-69
2022/01/24 11:03:57;;;;;;;2.17;2.07;;;16.50;64.70;;;;;;5088349;28;44071;-69
2022/01/24 11:06:28;;;;;;;2.20;2.10;;;16.40;64.70;;;;;;5088690;28;43986;-69
2022/01/24 11:09:18;;;;;;;2.50;2.10;;;16.40;64.90;;;;;;5072163;28;43409;-69
2022/01/24 11:11:47;;;;;;;2.07;1.97;;;16.30;65.00;;;;;;5072768;28;44234;-69
2022/01/24 11:14:18;;;;;;;2.53;2.33;;;16.30;65.10;;;;;;5089629;27;44307;-69
2022/01/24 11:16:47;;;;;;;2.30;2.20;;;16.30;65.20;;;;;;5071951;28;43451;-69
2022/01/24 11:19:22;;;;;;;1.80;1.70;;;16.30;65.30;;;;;;5071559;28;43928;-70
2022/01/24 11:21:53;;;;;;;1.87;1.83;;;16.30;65.40;;;;;;5071911;28;44282;-70
2022/01/24 11:24:27;;;;;;;2.13;2.03;;;16.30;65.40;;;;;;5071630;28;44912;-69
2022/01/24 11:26:55;;;;;;;2.97;2.23;;;16.30;65.50;;;;;;5071868;28;43989;-70
2022/01/24 11:29:23;;;;;;;2.17;2.07;;;16.30;65.40;;;;;;5081919;28;43893;-69
2022/01/24 11:31:57;;;;;;;2.20;2.10;;;16.40;65.10;;;;;;5071180;28;44034;-70
2022/01/24 11:34:31;;;;;;;2.40;2.10;;;16.60;65.40;;;;;;5070936;28;44009;-70
2022/01/24 11:37:00;;;;;;;2.10;2.00;;;16.70;64.20;;;;;;5070960;28;43655;-70
2022/01/24 11:39:28;;;;;;;2.17;2.07;;;16.90;63.80;;;;;;5087734;27;44004;-69
2022/01/24 11:41:56;;;;;;;2.67;2.50;;;16.90;63.20;;;;;;5087830;28;44032;-70
2022/01/24 11:44:26;;;;;;;2.27;2.17;;;16.90;63.30;;;;;;5087305;28;43946;-69
2022/01/24 11:46:56;;;;;;;2.20;2.10;;;16.80;63.50;;;;;;5087836;28;44042;-69
2022/01/24 11:49:32;;;;;;;2.40;2.10;;;16.80;64.00;;;;;;5070603;28;43860;-70
2022/01/24 11:52:06;;;;;;;2.73;2.20;;;16.70;64.30;;;;;;5054750;28;43938;-70
2022/01/24 11:54:48;;;;;;;2.40;2.30;;;16.60;64.40;;;;;;5087058;27;43833;-70
2022/01/24 11:57:23;;;;;;;4.23;2.70;;;16.60;64.70;;;;;;5087150;27;44011;-70
2022/01/24 11:59:52;;;;;;;4.37;2.33;;;16.50;64.70;;;;;;5087470;28;43984;-69
2022/01/24 12:02:23;;;;;;;2.80;2.33;;;16.50;65.00;;;;;;5071095;28;43960;-69
2022/01/24 12:05:00;;;;;;;3.03;2.57;;;16.40;65.00;;;;;;5070710;28;43947;-69
2022/01/24 12:07:29;;;;;;;2.70;2.50;;;16.40;65.10;;;;;;5087146;28;43983;-69
2022/01/24 12:10:37;;;;;;;2.50;2.30;;;16.40;65.00;;;;;;5086859;28;43999;-69
2022/01/24 12:13:05;;;;;;;2.40;2.30;;;16.50;64.60;;;;;;5087390;28;44011;-69
2022/01/24 12:15:54;;;;;;;2.27;2.17;;;16.60;64.30;;;;;;5070192;28;43920;-70
2022/01/24 12:18:24;;;;;;;2.47;2.30;;;16.60;64.50;;;;;;5087354;28;44399;-69
2022/01/24 12:20:55;;;;;;;2.17;2.07;;;16.50;64.60;;;;;;5070230;28;44025;-69
2022/01/24 12:23:37;;;;;;;2.73;2.53;;;16.50;64.70;;;;;;5053880;28;44059;-69
2022/01/24 12:26:28;;;;;;;2.50;2.30;;;16.50;64.90;;;;;;5087327;28;44235;-69
2022/01/24 12:29:02;;;;;;;2.40;2.30;;;16.40;65.00;;;;;;5053781;28;43365;-70
2022/01/24 12:31:32;;;;;;;2.47;2.37;;;16.40;65.10;;;;;;5053501;28;44010;-69
2022/01/24 12:34:09;;;;;;;2.20;2.10;;;16.40;65.20;;;;;;5087256;28;43891;-69
2022/01/24 12:37:00;;;;;;;2.77;2.57;;;16.40;65.30;;;;;;5069629;28;44131;-70
2022/01/24 12:39:36;;;;;;;2.40;2.30;;;16.30;65.30;;;;;;5069159;28;43904;-69
2022/01/24 12:42:11;;;;;;;2.40;2.20;;;16.30;65.30;;;;;;5086549;28;43841;-69
2022/01/24 12:47:27;;;;;;;3.23;2.93;;;16.30;65.40;;;;;;5072467;28;43823;-70
2022/01/24 12:49:56;;;;;;;3.23;2.60;;;16.40;65.40;;;;;;5049893;28;44003;-69
2022/01/24 12:52:26;;;;;;;3.67;2.87;;;16.50;65.00;;;;;;5053121;28;43969;-69
2022/01/24 12:55:01;;;;;;;3.60;3.27;;;16.70;64.50;;;;;;5087098;27;44099;-69
2022/01/24 12:57:39;;;;;;;3.20;3.00;;;16.80;64.10;;;;;;5087441;27;45305;-70
2022/01/24 13:00:09;;;;;;;4.97;3.10;;;16.90;64.60;;;;;;5071064;28;43955;-69
2022/01/24 13:02:38;;;;;;;4.13;3.43;;;16.90;63.80;;;;;;5070369;28;43967;-70
2022/01/24 13:05:09;;;;;;;4.00;3.40;;;16.80;64.00;;;;;;5053135;28;43930;-69
2022/01/24 13:07:39;;;;;;;5.03;3.97;;;16.70;64.20;;;;;;5069532;28;45791;-69
2022/01/24 13:10:12;;;;;;;4.93;4.00;;;16.60;64.40;;;;;;5087493;27;43962;-69
2022/01/24 13:12:41;;;;;;;5.77;4.03;;;16.60;64.80;;;;;;5069107;28;43953;-69
2022/01/24 13:15:22;;;;;;;8.33;4.10;;;16.50;64.80;;;;;;5087765;27;43799;-69
2022/01/24 13:23:26;;;;;;;7.83;4.40;;;16.40;65.30;;;;;;5071874;28;44048;-70
2022/01/24 13:25:54;;;;;;;5.17;4.07;;;16.40;65.40;;;;;;5069517;28;44170;-70
2022/01/24 13:28:23;;;;;;;8.43;4.87;;;16.40;65.70;;;;;;5085765;28;43945;-69
2022/01/24 13:30:59;;;;;;;5.97;4.67;;;16.50;65.60;;;;;;5068527;28;44017;-70
2022/01/24 13:33:27;;;;;;;6.93;4.67;;;16.60;65.10;;;;;;5085902;28;43925;-69
2022/01/24 13:35:56;;;;;;;5.77;3.97;;;16.80;64.80;;;;;;5079937;28;44235;-69
2022/01/24 13:38:26;;;;;;;6.80;4.37;;;16.80;64.50;;;;;;5079246;27;44188;-69
2022/01/24 13:40:57;;;;;;;5.80;4.50;;;16.70;64.50;;;;;;5068897;28;45842;-69
2022/01/24 13:43:36;;;;;;;8.20;4.70;;;16.70;64.80;;;;;;5069724;28;43472;-69
2022/01/24 13:46:06;;;;;;;8.63;5.47;;;16.60;65.00;;;;;;5086028;28;43886;-69
2022/01/24 13:48:43;;;;;;;8.10;4.83;;;16.50;65.10;;;;;;5085131;28;45227;-69
2022/01/24 13:51:13;;;;;;;5.03;4.27;;;16.50;65.40;;;;;;5068751;28;43644;-70
2022/01/24 13:53:44;;;;;;;8.07;4.43;;;16.50;65.60;;;;;;5085516;28;43975;-70
2022/01/24 13:56:21;;;;;;;7.17;5.20;;;16.40;65.70;;;;;;5087206;27;44141;-69
2022/01/24 13:59:11;;;;;;;8.30;4.73;;;16.40;65.80;;;;;;5085224;28;45702;-69
2022/01/24 14:01:40;;;;;;;7.23;4.40;;;16.40;65.90;;;;;;5068108;28;43958;-69
2022/01/24 14:04:09;;;;;;;10.13;5.03;;;16.40;66.00;;;;;;5085031;28;43962;-70
2022/01/24 14:06:38;;;;;;;10.27;5.30;;;16.30;66.00;;;;;;5085395;27;44162;-70
2022/01/24 14:09:09;;;;;;;8.70;5.20;;;16.40;66.20;;;;;;5085025;27;43854;-69
2022/01/24 14:11:42;;;;;;;7.13;5.07;;;16.50;65.90;;;;;;5068412;28;44284;-69
2022/01/24 14:14:13;;;;;;;7.97;5.20;;;16.70;65.50;;;;;;5068928;28;43965;-70
2022/01/24 14:16:52;;;;;;;8.00;5.07;;;16.80;65.00;;;;;;5069690;28;43945;-70
2022/01/24 14:19:29;;;;;;;8.47;5.17;;;16.90;64.60;;;;;;5085133;28;45935;-69